sensor_id;sensor_type;location;lat;lon;timestamp;P1;durP1;ratioP1;P2;durP2;ratioP2
78995;SDS011;68401;47.192;-1.552;2023-06-10T00:01:42;10.20;;;7.22;;
78995;SDS011;68401;47.192;-1.552;2023-06-10T00:04:12;10.75;;;7.70;;
78995;SDS011;68401;47.192;-1.552;2023-06-10T00:06:37;9.25;;;6.55;;
78995;SDS011;68401;47.192;-1.552;2023-06-10T00:09:04;9.40;;;6.63;;
78995;SDS011;68401;47.192;-1.552;2023-06-10T00:11:33;8.80;;;6.60;;
78995;SDS011;68401;47.192;-1.552;2023-06-10T00:13:59;11.90;;;8.00;;
78995;SDS011;68401;47.192;-1.552;2023-06-10T00:16:24;12.40;;;6.38;;
78995;SDS011;68401;47.192;-1.552;2023-06-10T00:18:50;11.50;;;5.97;;
78995;SDS011;68401;47.192;-1.552;2023-06-10T00:21:21;10.73;;;6.43;;
78995;SDS011;68401;47.192;-1.552;2023-06-10T00:23:46;10.02;;;6.75;;
78995;SDS011;68401;47.192;-1.552;2023-06-10T00:26:12;8.95;;;5.95;;
78995;SDS011;68401;47.192;-1.552;2023-06-10T00:28:37;10.23;;;6.35;;
78995;SDS011;68401;47.192;-1.552;2023-06-10T00:31:03;9.20;;;6.65;;
78995;SDS011;68401;47.192;-1.552;2023-06-10T00:33:29;7.45;;;5.32;;
78995;SDS011;68401;47.192;-1.552;2023-06-10T00:35:55;8.38;;;5.90;;
78995;SDS011;68401;47.192;-1.552;2023-06-10T00:38:20;9.20;;;5.03;;
78995;SDS011;68401;47.192;-1.552;2023-06-10T00:40:45;8.68;;;5.47;;
78995;SDS011;68401;47.192;-1.552;2023-06-10T00:43:11;8.70;;;5.75;;
78995;SDS011;68401;47.192;-1.552;2023-06-10T00:45:36;9.63;;;4.80;;
78995;SDS011;68401;47.192;-1.552;2023-06-10T00:48:02;7.60;;;5.50;;
78995;SDS011;68401;47.192;-1.552;2023-06-10T00:50:27;10.50;;;5.65;;
78995;SDS011;68401;47.192;-1.552;2023-06-10T00:52:53;9.18;;;5.20;;
78995;SDS011;68401;47.192;-1.552;2023-06-10T00:55:19;7.30;;;4.90;;
78995;SDS011;68401;47.192;-1.552;2023-06-10T00:57:45;7.97;;;4.57;;
78995;SDS011;68401;47.192;-1.552;2023-06-10T01:00:11;7.55;;;4.25;;
78995;SDS011;68401;47.192;-1.552;2023-06-10T01:02:37;8.30;;;4.55;;
78995;SDS011;68401;47.192;-1.552;2023-06-10T01:05:03;6.97;;;5.03;;
78995;SDS011;68401;47.192;-1.552;2023-06-10T01:07:51;7.55;;;5.68;;
78995;SDS011;68401;47.192;-1.552;2023-06-10T01:10:25;7.85;;;5.82;;
78995;SDS011;68401;47.192;-1.552;2023-06-10T01:12:54;8.80;;;5.50;;
78995;SDS011;68401;47.192;-1.552;2023-06-10T01:15:22;9.50;;;5.22;;
78995;SDS011;68401;47.192;-1.552;2023-06-10T01:20:23;9.45;;;5.68;;
78995;SDS011;68401;47.192;-1.552;2023-06-10T01:22:49;9.07;;;6.00;;
78995;SDS011;68401;47.192;-1.552;2023-06-10T01:25:16;8.27;;;5.43;;
78995;SDS011;68401;47.192;-1.552;2023-06-10T01:27:42;11.60;;;5.57;;
78995;SDS011;68401;47.192;-1.552;2023-06-10T01:30:14;7.60;;;4.80;;
78995;SDS011;68401;47.192;-1.552;2023-06-10T01:32:43;7.45;;;4.30;;
78995;SDS011;68401;47.192;-1.552;2023-06-10T01:35:13;7.18;;;4.72;;
78995;SDS011;68401;47.192;-1.552;2023-06-10T01:37:39;9.13;;;4.72;;
78995;SDS011;68401;47.192;-1.552;2023-06-10T01:40:06;9.57;;;5.75;;
78995;SDS011;68401;47.192;-1.552;2023-06-10T01:42:32;8.07;;;5.05;;
78995;SDS011;68401;47.192;-1.552;2023-06-10T01:44:58;10.38;;;4.85;;
78995;SDS011;68401;47.192;-1.552;2023-06-10T01:47:24;11.05;;;4.85;;
78995;SDS011;68401;47.192;-1.552;2023-06-10T01:49:49;12.60;;;4.90;;
78995;SDS011;68401;47.192;-1.552;2023-06-10T01:52:15;7.68;;;4.78;;
78995;SDS011;68401;47.192;-1.552;2023-06-10T01:54:40;8.63;;;4.40;;
78995;SDS011;68401;47.192;-1.552;2023-06-10T01:57:05;6.95;;;4.82;;
78995;SDS011;68401;47.192;-1.552;2023-06-10T01:59:31;8.07;;;4.90;;
78995;SDS011;68401;47.192;-1.552;2023-06-10T02:01:57;7.75;;;4.05;;
78995;SDS011;68401;47.192;-1.552;2023-06-10T02:04:22;4.82;;;3.97;;
78995;SDS011;68401;47.192;-1.552;2023-06-10T02:06:47;6.47;;;4.28;;
78995;SDS011;68401;47.192;-1.552;2023-06-10T02:09:13;7.18;;;4.65;;
78995;SDS011;68401;47.192;-1.552;2023-06-10T02:11:39;9.68;;;4.57;;
78995;SDS011;68401;47.192;-1.552;2023-06-10T02:14:04;8.50;;;4.70;;
78995;SDS011;68401;47.192;-1.552;2023-06-10T02:16:30;6.20;;;4.55;;
78995;SDS011;68401;47.192;-1.552;2023-06-10T02:18:56;7.50;;;4.78;;
78995;SDS011;68401;47.192;-1.552;2023-06-10T02:21:21;7.60;;;4.85;;
78995;SDS011;68401;47.192;-1.552;2023-06-10T02:23:47;7.75;;;4.80;;
78995;SDS011;68401;47.192;-1.552;2023-06-10T02:26:12;8.98;;;5.10;;
78995;SDS011;68401;47.192;-1.552;2023-06-10T02:28:37;10.13;;;4.93;;
78995;SDS011;68401;47.192;-1.552;2023-06-10T02:31:03;8.75;;;4.55;;
78995;SDS011;68401;47.192;-1.552;2023-06-10T02:33:28;7.75;;;4.90;;
78995;SDS011;68401;47.192;-1.552;2023-06-10T02:35:54;7.72;;;5.20;;
78995;SDS011;68401;47.192;-1.552;2023-06-10T02:38:20;8.63;;;4.90;;
78995;SDS011;68401;47.192;-1.552;2023-06-10T02:40:46;9.18;;;5.18;;
78995;SDS011;68401;47.192;-1.552;2023-06-10T02:43:11;10.98;;;5.07;;
78995;SDS011;68401;47.192;-1.552;2023-06-10T02:45:36;7.88;;;5.00;;
78995;SDS011;68401;47.192;-1.552;2023-06-10T02:48:02;8.52;;;5.40;;
78995;SDS011;68401;47.192;-1.552;2023-06-10T02:50:27;6.90;;;5.30;;
78995;SDS011;68401;47.192;-1.552;2023-06-10T02:52:53;6.95;;;5.25;;
78995;SDS011;68401;47.192;-1.552;2023-06-10T02:55:18;9.07;;;5.95;;
78995;SDS011;68401;47.192;-1.552;2023-06-10T02:57:43;10.27;;;6.35;;
78995;SDS011;68401;47.192;-1.552;2023-06-10T03:00:09;7.72;;;5.60;;
78995;SDS011;68401;47.192;-1.552;2023-06-10T03:02:36;8.63;;;6.18;;
78995;SDS011;68401;47.192;-1.552;2023-06-10T03:05:03;8.25;;;5.07;;
78995;SDS011;68401;47.192;-1.552;2023-06-10T03:07:30;10.75;;;7.10;;
78995;SDS011;68401;47.192;-1.552;2023-06-10T03:09:55;10.45;;;6.80;;
78995;SDS011;68401;47.192;-1.552;2023-06-10T03:12:21;10.35;;;6.85;;
78995;SDS011;68401;47.192;-1.552;2023-06-10T03:14:46;15.77;;;7.07;;
78995;SDS011;68401;47.192;-1.552;2023-06-10T03:17:12;12.40;;;7.35;;
78995;SDS011;68401;47.192;-1.552;2023-06-10T03:19:37;11.48;;;6.75;;
78995;SDS011;68401;47.192;-1.552;2023-06-10T03:22:07;10.63;;;6.35;;
78995;SDS011;68401;47.192;-1.552;2023-06-10T03:24:34;11.63;;;6.90;;
78995;SDS011;68401;47.192;-1.552;2023-06-10T03:27:00;15.82;;;6.93;;
78995;SDS011;68401;47.192;-1.552;2023-06-10T03:29:27;9.18;;;6.28;;
78995;SDS011;68401;47.192;-1.552;2023-06-10T03:31:52;11.32;;;6.85;;
78995;SDS011;68401;47.192;-1.552;2023-06-10T03:34:18;12.05;;;7.25;;
78995;SDS011;68401;47.192;-1.552;2023-06-10T03:36:43;8.55;;;6.35;;
78995;SDS011;68401;47.192;-1.552;2023-06-10T03:39:08;10.95;;;7.80;;
78995;SDS011;68401;47.192;-1.552;2023-06-10T03:41:34;11.60;;;7.72;;
78995;SDS011;68401;47.192;-1.552;2023-06-10T03:44:00;13.85;;;7.68;;
78995;SDS011;68401;47.192;-1.552;2023-06-10T03:46:25;13.75;;;8.02;;
78995;SDS011;68401;47.192;-1.552;2023-06-10T03:48:51;14.60;;;8.05;;
78995;SDS011;68401;47.192;-1.552;2023-06-10T03:51:16;10.23;;;6.82;;
78995;SDS011;68401;47.192;-1.552;2023-06-10T03:53:42;13.32;;;8.75;;
78995;SDS011;68401;47.192;-1.552;2023-06-10T03:56:07;9.55;;;7.28;;
78995;SDS011;68401;47.192;-1.552;2023-06-10T03:58:33;11.80;;;8.40;;
78995;SDS011;68401;47.192;-1.552;2023-06-10T04:00:58;10.90;;;7.50;;
78995;SDS011;68401;47.192;-1.552;2023-06-10T04:03:24;11.95;;;7.53;;
78995;SDS011;68401;47.192;-1.552;2023-06-10T04:05:49;13.50;;;8.55;;
78995;SDS011;68401;47.192;-1.552;2023-06-10T04:08:15;13.50;;;8.07;;
78995;SDS011;68401;47.192;-1.552;2023-06-10T04:10:40;13.30;;;8.32;;
78995;SDS011;68401;47.192;-1.552;2023-06-10T04:13:06;13.95;;;8.88;;
78995;SDS011;68401;47.192;-1.552;2023-06-10T04:15:31;9.68;;;6.85;;
78995;SDS011;68401;47.192;-1.552;2023-06-10T04:20:26;9.93;;;6.63;;
78995;SDS011;68401;47.192;-1.552;2023-06-10T04:22:52;14.07;;;7.45;;
78995;SDS011;68401;47.192;-1.552;2023-06-10T04:25:17;12.68;;;7.35;;
78995;SDS011;68401;47.192;-1.552;2023-06-10T04:27:43;10.65;;;7.85;;
78995;SDS011;68401;47.192;-1.552;2023-06-10T04:30:08;11.98;;;7.20;;
78995;SDS011;68401;47.192;-1.552;2023-06-10T04:32:34;11.48;;;7.25;;
78995;SDS011;68401;47.192;-1.552;2023-06-10T04:34:59;10.70;;;7.10;;
78995;SDS011;68401;47.192;-1.552;2023-06-10T04:37:25;12.98;;;7.65;;
78995;SDS011;68401;47.192;-1.552;2023-06-10T04:39:50;11.77;;;7.32;;
78995;SDS011;68401;47.192;-1.552;2023-06-10T04:42:16;9.75;;;7.30;;
78995;SDS011;68401;47.192;-1.552;2023-06-10T04:44:41;13.43;;;6.57;;
78995;SDS011;68401;47.192;-1.552;2023-06-10T04:47:07;11.82;;;7.32;;
78995;SDS011;68401;47.192;-1.552;2023-06-10T04:49:34;12.90;;;7.72;;
78995;SDS011;68401;47.192;-1.552;2023-06-10T04:52:00;10.48;;;7.32;;
78995;SDS011;68401;47.192;-1.552;2023-06-10T04:54:25;9.43;;;7.32;;
78995;SDS011;68401;47.192;-1.552;2023-06-10T04:56:51;9.25;;;6.60;;
78995;SDS011;68401;47.192;-1.552;2023-06-10T04:59:16;12.70;;;7.50;;
78995;SDS011;68401;47.192;-1.552;2023-06-10T05:01:41;10.80;;;7.50;;
78995;SDS011;68401;47.192;-1.552;2023-06-10T05:04:07;18.92;;;9.88;;
78995;SDS011;68401;47.192;-1.552;2023-06-10T05:06:32;23.38;;;11.65;;
78995;SDS011;68401;47.192;-1.552;2023-06-10T05:08:58;24.05;;;11.95;;
78995;SDS011;68401;47.192;-1.552;2023-06-10T05:11:23;24.95;;;10.50;;
78995;SDS011;68401;47.192;-1.552;2023-06-10T05:13:48;24.65;;;12.18;;
78995;SDS011;68401;47.192;-1.552;2023-06-10T05:16:14;20.67;;;10.48;;
78995;SDS011;68401;47.192;-1.552;2023-06-10T05:18:40;21.25;;;11.23;;
78995;SDS011;68401;47.192;-1.552;2023-06-10T05:21:05;20.50;;;10.98;;
78995;SDS011;68401;47.192;-1.552;2023-06-10T05:23:31;18.45;;;9.38;;
78995;SDS011;68401;47.192;-1.552;2023-06-10T05:25:56;23.48;;;10.82;;
78995;SDS011;68401;47.192;-1.552;2023-06-10T05:28:23;18.70;;;9.55;;
78995;SDS011;68401;47.192;-1.552;2023-06-10T05:30:48;19.17;;;9.55;;
78995;SDS011;68401;47.192;-1.552;2023-06-10T05:33:14;19.73;;;10.07;;
78995;SDS011;68401;47.192;-1.552;2023-06-10T05:35:40;14.98;;;9.63;;
78995;SDS011;68401;47.192;-1.552;2023-06-10T05:38:05;20.38;;;9.13;;
78995;SDS011;68401;47.192;-1.552;2023-06-10T05:40:31;16.23;;;11.23;;
78995;SDS011;68401;47.192;-1.552;2023-06-10T05:42:57;19.15;;;11.38;;
78995;SDS011;68401;47.192;-1.552;2023-06-10T05:45:22;18.90;;;11.18;;
78995;SDS011;68401;47.192;-1.552;2023-06-10T05:47:48;16.70;;;9.95;;
78995;SDS011;68401;47.192;-1.552;2023-06-10T05:50:13;15.93;;;9.45;;
78995;SDS011;68401;47.192;-1.552;2023-06-10T05:52:40;15.05;;;8.80;;
78995;SDS011;68401;47.192;-1.552;2023-06-10T05:55:05;22.83;;;11.25;;
78995;SDS011;68401;47.192;-1.552;2023-06-10T05:57:31;19.75;;;10.00;;
78995;SDS011;68401;47.192;-1.552;2023-06-10T05:59:57;18.88;;;10.65;;
78995;SDS011;68401;47.192;-1.552;2023-06-10T06:02:22;19.13;;;11.10;;
78995;SDS011;68401;47.192;-1.552;2023-06-10T06:04:48;21.48;;;11.55;;
78995;SDS011;68401;47.192;-1.552;2023-06-10T06:07:13;20.42;;;11.68;;
78995;SDS011;68401;47.192;-1.552;2023-06-10T06:09:39;30.63;;;13.10;;
78995;SDS011;68401;47.192;-1.552;2023-06-10T06:12:04;27.17;;;13.88;;
78995;SDS011;68401;47.192;-1.552;2023-06-10T06:14:32;23.98;;;13.45;;
78995;SDS011;68401;47.192;-1.552;2023-06-10T06:16:58;34.25;;;16.75;;
78995;SDS011;68401;47.192;-1.552;2023-06-10T06:19:23;27.63;;;15.38;;
78995;SDS011;68401;47.192;-1.552;2023-06-10T06:21:48;32.05;;;15.05;;
78995;SDS011;68401;47.192;-1.552;2023-06-10T06:24:14;31.58;;;15.95;;
78995;SDS011;68401;47.192;-1.552;2023-06-10T06:26:40;28.55;;;15.10;;
78995;SDS011;68401;47.192;-1.552;2023-06-10T06:29:05;31.30;;;14.77;;
78995;SDS011;68401;47.192;-1.552;2023-06-10T06:31:31;37.60;;;15.68;;
78995;SDS011;68401;47.192;-1.552;2023-06-10T06:33:57;32.80;;;15.95;;
78995;SDS011;68401;47.192;-1.552;2023-06-10T06:36:22;28.70;;;13.80;;
78995;SDS011;68401;47.192;-1.552;2023-06-10T06:38:47;29.13;;;14.43;;
78995;SDS011;68401;47.192;-1.552;2023-06-10T06:41:13;23.55;;;14.57;;
78995;SDS011;68401;47.192;-1.552;2023-06-10T06:43:38;26.50;;;16.25;;
78995;SDS011;68401;47.192;-1.552;2023-06-10T06:46:03;29.25;;;16.95;;
78995;SDS011;68401;47.192;-1.552;2023-06-10T06:48:29;24.30;;;14.75;;
78995;SDS011;68401;47.192;-1.552;2023-06-10T06:50:54;34.67;;;17.65;;
78995;SDS011;68401;47.192;-1.552;2023-06-10T06:53:21;38.05;;;18.42;;
78995;SDS011;68401;47.192;-1.552;2023-06-10T06:55:47;46.13;;;19.83;;
78995;SDS011;68401;47.192;-1.552;2023-06-10T06:58:12;38.05;;;17.48;;
78995;SDS011;68401;47.192;-1.552;2023-06-10T07:00:37;31.17;;;16.08;;
78995;SDS011;68401;47.192;-1.552;2023-06-10T07:03:03;34.30;;;16.77;;
78995;SDS011;68401;47.192;-1.552;2023-06-10T07:05:28;33.72;;;15.73;;
78995;SDS011;68401;47.192;-1.552;2023-06-10T07:07:55;31.27;;;15.18;;
78995;SDS011;68401;47.192;-1.552;2023-06-10T07:10:24;27.08;;;15.35;;
78995;SDS011;68401;47.192;-1.552;2023-06-10T07:12:50;27.30;;;14.23;;
78995;SDS011;68401;47.192;-1.552;2023-06-10T07:15:16;23.13;;;13.43;;
78995;SDS011;68401;47.192;-1.552;2023-06-10T07:17:41;28.45;;;15.95;;
78995;SDS011;68401;47.192;-1.552;2023-06-10T07:20:07;29.85;;;15.55;;
78995;SDS011;68401;47.192;-1.552;2023-06-10T07:22:33;29.70;;;15.10;;
78995;SDS011;68401;47.192;-1.552;2023-06-10T07:24:58;24.45;;;15.25;;
78995;SDS011;68401;47.192;-1.552;2023-06-10T07:27:24;32.90;;;16.95;;
78995;SDS011;68401;47.192;-1.552;2023-06-10T07:29:50;28.75;;;14.70;;
78995;SDS011;68401;47.192;-1.552;2023-06-10T07:32:15;31.67;;;15.95;;
78995;SDS011;68401;47.192;-1.552;2023-06-10T07:34:41;31.23;;;16.55;;
78995;SDS011;68401;47.192;-1.552;2023-06-10T07:37:06;28.67;;;16.60;;
78995;SDS011;68401;47.192;-1.552;2023-06-10T07:39:32;30.48;;;16.45;;
78995;SDS011;68401;47.192;-1.552;2023-06-10T07:41:57;27.70;;;16.08;;
78995;SDS011;68401;47.192;-1.552;2023-06-10T07:44:23;24.85;;;15.20;;
78995;SDS011;68401;47.192;-1.552;2023-06-10T07:46:48;22.65;;;14.95;;
78995;SDS011;68401;47.192;-1.552;2023-06-10T07:49:14;22.00;;;13.15;;
78995;SDS011;68401;47.192;-1.552;2023-06-10T07:51:39;20.33;;;13.00;;
78995;SDS011;68401;47.192;-1.552;2023-06-10T07:54:05;22.58;;;13.90;;
78995;SDS011;68401;47.192;-1.552;2023-06-10T07:56:30;23.00;;;13.80;;
78995;SDS011;68401;47.192;-1.552;2023-06-10T07:58:56;20.50;;;13.27;;
78995;SDS011;68401;47.192;-1.552;2023-06-10T08:01:22;22.60;;;13.00;;
78995;SDS011;68401;47.192;-1.552;2023-06-10T08:03:48;21.52;;;12.93;;
78995;SDS011;68401;47.192;-1.552;2023-06-10T08:06:13;20.90;;;12.50;;
78995;SDS011;68401;47.192;-1.552;2023-06-10T08:08:39;18.02;;;11.50;;
78995;SDS011;68401;47.192;-1.552;2023-06-10T08:11:08;18.08;;;12.55;;
78995;SDS011;68401;47.192;-1.552;2023-06-10T08:13:37;17.60;;;11.10;;
78995;SDS011;68401;47.192;-1.552;2023-06-10T08:16:02;17.38;;;11.50;;
78995;SDS011;68401;47.192;-1.552;2023-06-10T08:18:28;13.70;;;9.32;;
78995;SDS011;68401;47.192;-1.552;2023-06-10T08:20:53;15.00;;;10.00;;
78995;SDS011;68401;47.192;-1.552;2023-06-10T08:23:19;12.80;;;8.90;;
78995;SDS011;68401;47.192;-1.552;2023-06-10T08:25:45;11.63;;;8.57;;
78995;SDS011;68401;47.192;-1.552;2023-06-10T08:28:10;11.75;;;8.15;;
78995;SDS011;68401;47.192;-1.552;2023-06-10T08:30:36;12.02;;;8.43;;
78995;SDS011;68401;47.192;-1.552;2023-06-10T08:33:01;12.75;;;8.73;;
78995;SDS011;68401;47.192;-1.552;2023-06-10T08:35:26;12.30;;;8.13;;
78995;SDS011;68401;47.192;-1.552;2023-06-10T08:37:52;10.52;;;8.40;;
78995;SDS011;68401;47.192;-1.552;2023-06-10T08:40:17;9.63;;;7.93;;
78995;SDS011;68401;47.192;-1.552;2023-06-10T08:42:43;12.07;;;9.23;;
78995;SDS011;68401;47.192;-1.552;2023-06-10T08:45:16;12.32;;;8.73;;
78995;SDS011;68401;47.192;-1.552;2023-06-10T08:47:45;9.82;;;7.28;;
78995;SDS011;68401;47.192;-1.552;2023-06-10T08:50:11;10.52;;;7.90;;
78995;SDS011;68401;47.192;-1.552;2023-06-10T08:52:37;10.40;;;7.95;;
78995;SDS011;68401;47.192;-1.552;2023-06-10T08:55:15;11.48;;;8.15;;
78995;SDS011;68401;47.192;-1.552;2023-06-10T08:57:45;9.23;;;7.47;;
78995;SDS011;68401;47.192;-1.552;2023-06-10T09:00:12;10.60;;;8.02;;
78995;SDS011;68401;47.192;-1.552;2023-06-10T09:02:38;9.60;;;7.50;;
78995;SDS011;68401;47.192;-1.552;2023-06-10T09:05:04;11.18;;;8.55;;
78995;SDS011;68401;47.192;-1.552;2023-06-10T09:07:30;10.93;;;8.95;;
78995;SDS011;68401;47.192;-1.552;2023-06-10T09:09:56;13.23;;;9.75;;
78995;SDS011;68401;47.192;-1.552;2023-06-10T09:12:22;12.32;;;9.10;;
78995;SDS011;68401;47.192;-1.552;2023-06-10T09:14:48;13.07;;;9.45;;
78995;SDS011;68401;47.192;-1.552;2023-06-10T09:17:16;11.27;;;9.50;;
78995;SDS011;68401;47.192;-1.552;2023-06-10T09:19:41;15.25;;;11.40;;
78995;SDS011;68401;47.192;-1.552;2023-06-10T09:22:07;11.80;;;9.73;;
78995;SDS011;68401;47.192;-1.552;2023-06-10T09:24:33;11.77;;;9.65;;
78995;SDS011;68401;47.192;-1.552;2023-06-10T09:27:05;11.40;;;8.85;;
78995;SDS011;68401;47.192;-1.552;2023-06-10T09:29:53;11.57;;;8.68;;
78995;SDS011;68401;47.192;-1.552;2023-06-10T09:32:18;9.77;;;7.90;;
78995;SDS011;68401;47.192;-1.552;2023-06-10T09:34:44;9.13;;;7.35;;
78995;SDS011;68401;47.192;-1.552;2023-06-10T09:37:10;9.15;;;8.20;;
78995;SDS011;68401;47.192;-1.552;2023-06-10T09:39:38;8.85;;;7.25;;
78995;SDS011;68401;47.192;-1.552;2023-06-10T09:42:16;8.20;;;7.20;;
78995;SDS011;68401;47.192;-1.552;2023-06-10T09:44:48;7.85;;;6.28;;
78995;SDS011;68401;47.192;-1.552;2023-06-10T09:47:19;7.90;;;7.10;;
78995;SDS011;68401;47.192;-1.552;2023-06-10T09:49:48;9.05;;;8.05;;
78995;SDS011;68401;47.192;-1.552;2023-06-10T09:52:14;8.20;;;7.35;;
78995;SDS011;68401;47.192;-1.552;2023-06-10T09:54:46;9.10;;;8.20;;
78995;SDS011;68401;47.192;-1.552;2023-06-10T09:57:12;8.48;;;7.45;;
78995;SDS011;68401;47.192;-1.552;2023-06-10T09:59:37;7.93;;;7.03;;
78995;SDS011;68401;47.192;-1.552;2023-06-10T10:02:03;7.47;;;5.88;;
78995;SDS011;68401;47.192;-1.552;2023-06-10T10:04:29;7.20;;;6.40;;
78995;SDS011;68401;47.192;-1.552;2023-06-10T10:06:55;6.68;;;5.95;;
78995;SDS011;68401;47.192;-1.552;2023-06-10T10:09:20;6.65;;;5.93;;
78995;SDS011;68401;47.192;-1.552;2023-06-10T10:11:45;7.07;;;5.32;;
78995;SDS011;68401;47.192;-1.552;2023-06-10T10:14:12;4.63;;;4.15;;
78995;SDS011;68401;47.192;-1.552;2023-06-10T10:16:40;6.68;;;4.43;;
78995;SDS011;68401;47.192;-1.552;2023-06-10T10:19:16;4.47;;;4.05;;
78995;SDS011;68401;47.192;-1.552;2023-06-10T10:21:48;4.82;;;3.63;;
78995;SDS011;68401;47.192;-1.552;2023-06-10T10:24:18;4.22;;;3.83;;
78995;SDS011;68401;47.192;-1.552;2023-06-10T10:26:46;4.20;;;3.80;;
78995;SDS011;68401;47.192;-1.552;2023-06-10T10:29:33;5.22;;;3.80;;
78995;SDS011;68401;47.192;-1.552;2023-06-10T10:32:03;4.07;;;3.67;;
78995;SDS011;68401;47.192;-1.552;2023-06-10T10:34:30;3.42;;;3.10;;
78995;SDS011;68401;47.192;-1.552;2023-06-10T10:36:58;4.30;;;3.90;;
78995;SDS011;68401;47.192;-1.552;2023-06-10T10:39:23;4.40;;;3.50;;
78995;SDS011;68401;47.192;-1.552;2023-06-10T10:41:49;5.20;;;3.60;;
78995;SDS011;68401;47.192;-1.552;2023-06-10T10:44:15;4.20;;;3.33;;
78995;SDS011;68401;47.192;-1.552;2023-06-10T10:46:42;3.88;;;3.33;;
78995;SDS011;68401;47.192;-1.552;2023-06-10T10:49:19;5.57;;;3.70;;
78995;SDS011;68401;47.192;-1.552;2023-06-10T10:51:58;5.32;;;3.30;;
78995;SDS011;68401;47.192;-1.552;2023-06-10T10:59:51;3.90;;;3.22;;
78995;SDS011;68401;47.192;-1.552;2023-06-10T11:03:04;4.60;;;3.20;;
78995;SDS011;68401;47.192;-1.552;2023-06-10T11:05:18;3.75;;;3.28;;
78995;SDS011;68401;47.192;-1.552;2023-06-10T11:08:03;3.35;;;3.05;;
78995;SDS011;68401;47.192;-1.552;2023-06-10T11:10:34;4.60;;;2.72;;
78995;SDS011;68401;47.192;-1.552;2023-06-10T11:13:02;3.95;;;2.97;;
78995;SDS011;68401;47.192;-1.552;2023-06-10T11:15:32;4.63;;;2.70;;
78995;SDS011;68401;47.192;-1.552;2023-06-10T11:34:01;3.20;;;1.92;;
78995;SDS011;68401;47.192;-1.552;2023-06-10T11:36:29;3.25;;;1.95;;
78995;SDS011;68401;47.192;-1.552;2023-06-10T11:38:59;2.50;;;2.00;;
78995;SDS011;68401;47.192;-1.552;2023-06-10T11:41:27;4.72;;;1.80;;
78995;SDS011;68401;47.192;-1.552;2023-06-10T11:43:54;3.90;;;2.13;;
78995;SDS011;68401;47.192;-1.552;2023-06-10T11:46:23;3.00;;;2.00;;
78995;SDS011;68401;47.192;-1.552;2023-06-10T11:48:49;3.35;;;1.88;;
78995;SDS011;68401;47.192;-1.552;2023-06-10T11:56:08;2.58;;;2.10;;
78995;SDS011;68401;47.192;-1.552;2023-06-10T11:58:34;3.20;;;2.28;;
78995;SDS011;68401;47.192;-1.552;2023-06-10T12:00:59;3.90;;;2.00;;
78995;SDS011;68401;47.192;-1.552;2023-06-10T12:03:26;4.85;;;2.30;;
78995;SDS011;68401;47.192;-1.552;2023-06-10T12:06:03;4.15;;;2.58;;
78995;SDS011;68401;47.192;-1.552;2023-06-10T12:08:29;3.50;;;2.45;;
78995;SDS011;68401;47.192;-1.552;2023-06-10T12:10:56;6.05;;;2.35;;
78995;SDS011;68401;47.192;-1.552;2023-06-10T12:13:22;3.03;;;2.25;;
78995;SDS011;68401;47.192;-1.552;2023-06-10T12:15:49;3.20;;;2.10;;
78995;SDS011;68401;47.192;-1.552;2023-06-10T12:18:22;3.90;;;2.05;;
78995;SDS011;68401;47.192;-1.552;2023-06-10T12:20:48;2.75;;;2.22;;
78995;SDS011;68401;47.192;-1.552;2023-06-10T12:23:15;5.85;;;2.97;;
78995;SDS011;68401;47.192;-1.552;2023-06-10T12:25:51;4.35;;;2.58;;
78995;SDS011;68401;47.192;-1.552;2023-06-10T12:28:20;3.90;;;2.63;;
78995;SDS011;68401;47.192;-1.552;2023-06-10T12:30:49;3.35;;;2.10;;
78995;SDS011;68401;47.192;-1.552;2023-06-10T12:33:18;4.43;;;2.50;;
78995;SDS011;68401;47.192;-1.552;2023-06-10T12:35:48;4.88;;;2.10;;
78995;SDS011;68401;47.192;-1.552;2023-06-10T12:38:23;4.65;;;2.75;;
78995;SDS011;68401;47.192;-1.552;2023-06-10T12:40:52;4.55;;;2.30;;
78995;SDS011;68401;47.192;-1.552;2023-06-10T12:43:21;4.22;;;2.38;;
78995;SDS011;68401;47.192;-1.552;2023-06-10T12:45:47;3.55;;;2.40;;
78995;SDS011;68401;47.192;-1.552;2023-06-10T12:48:20;3.75;;;2.50;;
78995;SDS011;68401;47.192;-1.552;2023-06-10T12:50:53;4.22;;;2.33;;
78995;SDS011;68401;47.192;-1.552;2023-06-10T12:53:20;3.90;;;2.53;;
78995;SDS011;68401;47.192;-1.552;2023-06-10T12:55:46;3.20;;;1.98;;
78995;SDS011;68401;47.192;-1.552;2023-06-10T12:58:12;3.47;;;2.38;;
78995;SDS011;68401;47.192;-1.552;2023-06-10T13:00:38;4.20;;;1.92;;
78995;SDS011;68401;47.192;-1.552;2023-06-10T13:03:04;2.60;;;1.65;;
78995;SDS011;68401;47.192;-1.552;2023-06-10T13:05:32;3.03;;;1.83;;
78995;SDS011;68401;47.192;-1.552;2023-06-10T13:07:58;5.75;;;2.15;;
78995;SDS011;68401;47.192;-1.552;2023-06-10T13:10:24;4.00;;;2.00;;
78995;SDS011;68401;47.192;-1.552;2023-06-10T13:12:50;3.15;;;2.22;;
78995;SDS011;68401;47.192;-1.552;2023-06-10T13:15:16;3.60;;;2.00;;
78995;SDS011;68401;47.192;-1.552;2023-06-10T13:17:42;3.95;;;1.90;;
78995;SDS011;68401;47.192;-1.552;2023-06-10T13:20:08;3.55;;;1.85;;
78995;SDS011;68401;47.192;-1.552;2023-06-10T13:22:34;2.60;;;1.70;;
78995;SDS011;68401;47.192;-1.552;2023-06-10T13:25:04;6.18;;;1.75;;
78995;SDS011;68401;47.192;-1.552;2023-06-10T13:27:32;3.83;;;1.77;;
78995;SDS011;68401;47.192;-1.552;2023-06-10T13:29:58;3.38;;;1.38;;
78995;SDS011;68401;47.192;-1.552;2023-06-10T13:32:23;3.05;;;1.50;;
78995;SDS011;68401;47.192;-1.552;2023-06-10T13:34:49;2.60;;;1.52;;
78995;SDS011;68401;47.192;-1.552;2023-06-10T13:37:15;2.75;;;1.50;;
78995;SDS011;68401;47.192;-1.552;2023-06-10T13:39:43;3.40;;;1.60;;
78995;SDS011;68401;47.192;-1.552;2023-06-10T13:42:08;2.10;;;1.00;;
78995;SDS011;68401;47.192;-1.552;2023-06-10T13:44:34;2.22;;;1.40;;
78995;SDS011;68401;47.192;-1.552;2023-06-10T13:47:02;4.47;;;1.35;;
78995;SDS011;68401;47.192;-1.552;2023-06-10T13:49:28;2.47;;;1.40;;
78995;SDS011;68401;47.192;-1.552;2023-06-10T13:51:53;1.48;;;1.10;;
78995;SDS011;68401;47.192;-1.552;2023-06-10T13:54:19;2.88;;;1.40;;
78995;SDS011;68401;47.192;-1.552;2023-06-10T13:56:44;1.80;;;1.30;;
78995;SDS011;68401;47.192;-1.552;2023-06-10T13:59:10;1.50;;;1.10;;
78995;SDS011;68401;47.192;-1.552;2023-06-10T14:01:35;1.60;;;1.10;;
78995;SDS011;68401;47.192;-1.552;2023-06-10T14:04:01;2.05;;;1.15;;
78995;SDS011;68401;47.192;-1.552;2023-06-10T14:06:26;2.25;;;1.30;;
78995;SDS011;68401;47.192;-1.552;2023-06-10T14:08:51;2.33;;;1.15;;
78995;SDS011;68401;47.192;-1.552;2023-06-10T14:11:19;2.40;;;1.27;;
78995;SDS011;68401;47.192;-1.552;2023-06-10T14:13:45;1.60;;;1.02;;
78995;SDS011;68401;47.192;-1.552;2023-06-10T14:16:11;1.25;;;0.90;;
78995;SDS011;68401;47.192;-1.552;2023-06-10T14:18:36;1.27;;;0.98;;
78995;SDS011;68401;47.192;-1.552;2023-06-10T14:21:02;1.48;;;0.90;;
78995;SDS011;68401;47.192;-1.552;2023-06-10T14:23:27;1.75;;;1.20;;
78995;SDS011;68401;47.192;-1.552;2023-06-10T14:25:53;3.15;;;1.05;;
78995;SDS011;68401;47.192;-1.552;2023-06-10T14:28:18;1.75;;;1.13;;
78995;SDS011;68401;47.192;-1.552;2023-06-10T14:30:43;4.05;;;1.38;;
78995;SDS011;68401;47.192;-1.552;2023-06-10T14:33:09;2.88;;;1.27;;
78995;SDS011;68401;47.192;-1.552;2023-06-10T14:35:34;2.65;;;1.30;;
78995;SDS011;68401;47.192;-1.552;2023-06-10T14:37:59;2.53;;;1.20;;
78995;SDS011;68401;47.192;-1.552;2023-06-10T14:40:25;2.47;;;1.30;;
78995;SDS011;68401;47.192;-1.552;2023-06-10T14:42:53;4.10;;;1.73;;
78995;SDS011;68401;47.192;-1.552;2023-06-10T14:45:19;3.78;;;1.73;;
78995;SDS011;68401;47.192;-1.552;2023-06-10T14:47:44;2.08;;;1.30;;
78995;SDS011;68401;47.192;-1.552;2023-06-10T14:50:10;3.30;;;1.50;;
78995;SDS011;68401;47.192;-1.552;2023-06-10T14:52:35;2.20;;;1.30;;
78995;SDS011;68401;47.192;-1.552;2023-06-10T14:55:01;2.72;;;1.55;;